sensor_id;sensor_type;location;lat;lon;timestamp;P1;durP1;ratioP1;P2;durP2;ratioP2
54849;SDS011;47660;51.334;12.396;2023-02-24T00:01:53;13.57;;;6.65;;
54849;SDS011;47660;51.334;12.396;2023-02-24T00:04:29;14.88;;;6.30;;
54849;SDS011;47660;51.334;12.396;2023-02-24T00:06:59;13.70;;;6.57;;
54849;SDS011;47660;51.334;12.396;2023-02-24T00:09:31;14.32;;;7.57;;
54849;SDS011;47660;51.334;12.396;2023-02-24T00:12:01;15.63;;;6.85;;
54849;SDS011;47660;51.334;12.396;2023-02-24T00:14:33;18.25;;;7.50;;
54849;SDS011;47660;51.334;12.396;2023-02-24T00:17:03;14.27;;;5.72;;
54849;SDS011;47660;51.334;12.396;2023-02-24T00:19:32;14.32;;;7.13;;
54849;SDS011;47660;51.334;12.396;2023-02-24T00:21:58;19.30;;;7.03;;
54849;SDS011;47660;51.334;12.396;2023-02-24T00:24:29;15.90;;;6.70;;
54849;SDS011;47660;51.334;12.396;2023-02-24T00:26:56;19.02;;;7.22;;
54849;SDS011;47660;51.334;12.396;2023-02-24T00:29:26;15.63;;;6.38;;
54849;SDS011;47660;51.334;12.396;2023-02-24T00:31:53;20.55;;;7.45;;
54849;SDS011;47660;51.334;12.396;2023-02-24T00:34:25;16.95;;;6.68;;
54849;SDS011;47660;51.334;12.396;2023-02-24T00:36:52;14.73;;;6.65;;
54849;SDS011;47660;51.334;12.396;2023-02-24T00:39:21;19.98;;;7.90;;
54849;SDS011;47660;51.334;12.396;2023-02-24T00:41:57;19.02;;;7.07;;
54849;SDS011;47660;51.334;12.396;2023-02-24T00:44:30;19.90;;;8.17;;
54849;SDS011;47660;51.334;12.396;2023-02-24T00:46:59;18.27;;;6.22;;
54849;SDS011;47660;51.334;12.396;2023-02-24T00:49:30;18.15;;;6.90;;
54849;SDS011;47660;51.334;12.396;2023-02-24T00:51:57;15.05;;;6.00;;
54849;SDS011;47660;51.334;12.396;2023-02-24T00:54:23;17.35;;;7.13;;
54849;SDS011;47660;51.334;12.396;2023-02-24T00:56:52;17.30;;;7.00;;
54849;SDS011;47660;51.334;12.396;2023-02-24T00:59:21;17.58;;;6.80;;
54849;SDS011;47660;51.334;12.396;2023-02-24T01:01:50;19.67;;;6.50;;
54849;SDS011;47660;51.334;12.396;2023-02-24T01:04:16;24.20;;;7.82;;
54849;SDS011;47660;51.334;12.396;2023-02-24T01:06:46;18.45;;;6.93;;
54849;SDS011;47660;51.334;12.396;2023-02-24T01:09:23;18.75;;;6.28;;
54849;SDS011;47660;51.334;12.396;2023-02-24T01:11:51;24.13;;;6.20;;
54849;SDS011;47660;51.334;12.396;2023-02-24T01:14:35;20.42;;;6.70;;
54849;SDS011;47660;51.334;12.396;2023-02-24T01:17:04;17.27;;;4.97;;
54849;SDS011;47660;51.334;12.396;2023-02-24T01:19:33;23.30;;;7.55;;
54849;SDS011;47660;51.334;12.396;2023-02-24T01:22:03;23.45;;;6.15;;
54849;SDS011;47660;51.334;12.396;2023-02-24T01:24:36;30.17;;;7.10;;
54849;SDS011;47660;51.334;12.396;2023-02-24T01:27:06;24.90;;;6.57;;
54849;SDS011;47660;51.334;12.396;2023-02-24T01:29:35;23.08;;;6.53;;
54849;SDS011;47660;51.334;12.396;2023-02-24T01:32:12;18.67;;;5.78;;
54849;SDS011;47660;51.334;12.396;2023-02-24T01:34:45;20.13;;;6.03;;
54849;SDS011;47660;51.334;12.396;2023-02-24T01:37:17;23.58;;;6.72;;
54849;SDS011;47660;51.334;12.396;2023-02-24T01:39:43;16.35;;;5.72;;
54849;SDS011;47660;51.334;12.396;2023-02-24T01:42:12;25.45;;;6.75;;
54849;SDS011;47660;51.334;12.396;2023-02-24T01:47:12;22.77;;;6.57;;
54849;SDS011;47660;51.334;12.396;2023-02-24T01:49:44;24.95;;;7.18;;
54849;SDS011;47660;51.334;12.396;2023-02-24T01:52:19;29.05;;;6.75;;
54849;SDS011;47660;51.334;12.396;2023-02-24T01:55:08;20.65;;;5.65;;
54849;SDS011;47660;51.334;12.396;2023-02-24T01:57:40;26.58;;;5.95;;
54849;SDS011;47660;51.334;12.396;2023-02-24T02:00:07;24.38;;;6.45;;
54849;SDS011;47660;51.334;12.396;2023-02-24T02:02:45;22.27;;;6.20;;
54849;SDS011;47660;51.334;12.396;2023-02-24T02:05:16;20.20;;;5.85;;
54849;SDS011;47660;51.334;12.396;2023-02-24T02:07:42;23.48;;;6.88;;
54849;SDS011;47660;51.334;12.396;2023-02-24T02:10:11;25.85;;;6.95;;
54849;SDS011;47660;51.334;12.396;2023-02-24T02:12:38;26.42;;;6.53;;
54849;SDS011;47660;51.334;12.396;2023-02-24T02:15:11;21.83;;;5.88;;
54849;SDS011;47660;51.334;12.396;2023-02-24T02:20:28;12.45;;;4.05;;
54849;SDS011;47660;51.334;12.396;2023-02-24T02:34:07;9.15;;;2.25;;
54849;SDS011;47660;51.334;12.396;2023-02-24T02:44:52;8.05;;;1.80;;
54849;SDS011;47660;51.334;12.396;2023-02-24T02:47:24;6.05;;;1.55;;
54849;SDS011;47660;51.334;12.396;2023-02-24T02:53:29;7.07;;;1.50;;
54849;SDS011;47660;51.334;12.396;2023-02-24T02:55:58;6.30;;;1.48;;
54849;SDS011;47660;51.334;12.396;2023-02-24T02:58:35;5.25;;;1.35;;
54849;SDS011;47660;51.334;12.396;2023-02-24T03:01:14;4.47;;;1.40;;
54849;SDS011;47660;51.334;12.396;2023-02-24T03:03:46;6.60;;;1.30;;
54849;SDS011;47660;51.334;12.396;2023-02-24T03:06:19;9.18;;;1.63;;
54849;SDS011;47660;51.334;12.396;2023-02-24T03:09:02;13.52;;;1.98;;
54849;SDS011;47660;51.334;12.396;2023-02-24T03:14:01;5.82;;;2.00;;
54849;SDS011;47660;51.334;12.396;2023-02-24T03:16:30;5.13;;;1.70;;
54849;SDS011;47660;51.334;12.396;2023-02-24T03:19:01;4.68;;;2.03;;
54849;SDS011;47660;51.334;12.396;2023-02-24T03:24:01;9.95;;;2.83;;
54849;SDS011;47660;51.334;12.396;2023-02-24T03:31:30;8.52;;;1.60;;
54849;SDS011;47660;51.334;12.396;2023-02-24T03:36:58;6.63;;;1.73;;
54849;SDS011;47660;51.334;12.396;2023-02-24T03:39:26;17.98;;;2.10;;
54849;SDS011;47660;51.334;12.396;2023-02-24T03:41:53;11.43;;;1.92;;
54849;SDS011;47660;51.334;12.396;2023-02-24T03:44:26;13.73;;;2.45;;
54849;SDS011;47660;51.334;12.396;2023-02-24T03:46:53;11.90;;;2.70;;
54849;SDS011;47660;51.334;12.396;2023-02-24T03:49:20;8.38;;;2.20;;
54849;SDS011;47660;51.334;12.396;2023-02-24T03:51:53;8.05;;;2.13;;
54849;SDS011;47660;51.334;12.396;2023-02-24T04:02:19;10.13;;;2.00;;
54849;SDS011;47660;51.334;12.396;2023-02-24T04:07:26;3.97;;;1.40;;
54849;SDS011;47660;51.334;12.396;2023-02-24T04:10:08;4.00;;;1.15;;
54849;SDS011;47660;51.334;12.396;2023-02-24T04:12:42;11.73;;;1.45;;
54849;SDS011;47660;51.334;12.396;2023-02-24T04:15:13;13.68;;;1.95;;
54849;SDS011;47660;51.334;12.396;2023-02-24T04:17:47;9.38;;;1.75;;
54849;SDS011;47660;51.334;12.396;2023-02-24T04:20:19;10.10;;;1.50;;
54849;SDS011;47660;51.334;12.396;2023-02-24T04:22:50;10.32;;;1.20;;
54849;SDS011;47660;51.334;12.396;2023-02-24T04:25:23;8.25;;;1.50;;
54849;SDS011;47660;51.334;12.396;2023-02-24T04:27:57;3.47;;;1.50;;
54849;SDS011;47660;51.334;12.396;2023-02-24T04:32:57;8.45;;;1.00;;
54849;SDS011;47660;51.334;12.396;2023-02-24T04:35:25;9.25;;;1.60;;
54849;SDS011;47660;51.334;12.396;2023-02-24T04:37:51;5.68;;;1.45;;
54849;SDS011;47660;51.334;12.396;2023-02-24T04:40:18;7.60;;;1.45;;
54849;SDS011;47660;51.334;12.396;2023-02-24T04:42:49;5.10;;;1.35;;
54849;SDS011;47660;51.334;12.396;2023-02-24T04:45:22;5.35;;;1.13;;
54849;SDS011;47660;51.334;12.396;2023-02-24T04:47:56;7.13;;;1.42;;
54849;SDS011;47660;51.334;12.396;2023-02-24T04:50:26;5.55;;;1.15;;
54849;SDS011;47660;51.334;12.396;2023-02-24T04:52:55;5.38;;;1.02;;
54849;SDS011;47660;51.334;12.396;2023-02-24T04:55:31;3.20;;;1.45;;
54849;SDS011;47660;51.334;12.396;2023-02-24T04:58:01;6.97;;;1.50;;
54849;SDS011;47660;51.334;12.396;2023-02-24T05:00:27;4.55;;;1.05;;
54849;SDS011;47660;51.334;12.396;2023-02-24T05:03:03;5.47;;;0.95;;
54849;SDS011;47660;51.334;12.396;2023-02-24T05:05:30;4.28;;;1.23;;
54849;SDS011;47660;51.334;12.396;2023-02-24T05:08:04;5.70;;;1.30;;
54849;SDS011;47660;51.334;12.396;2023-02-24T05:10:35;11.13;;;0.98;;
54849;SDS011;47660;51.334;12.396;2023-02-24T05:13:05;3.00;;;0.82;;
54849;SDS011;47660;51.334;12.396;2023-02-24T05:15:33;2.58;;;0.90;;
54849;SDS011;47660;51.334;12.396;2023-02-24T05:18:03;6.43;;;1.13;;
54849;SDS011;47660;51.334;12.396;2023-02-24T05:20:39;11.10;;;0.98;;
54849;SDS011;47660;51.334;12.396;2023-02-24T05:23:26;9.80;;;0.98;;
54849;SDS011;47660;51.334;12.396;2023-02-24T05:25:52;4.55;;;1.42;;
54849;SDS011;47660;51.334;12.396;2023-02-24T05:28:19;6.88;;;1.38;;
54849;SDS011;47660;51.334;12.396;2023-02-24T05:30:49;9.23;;;1.90;;
54849;SDS011;47660;51.334;12.396;2023-02-24T05:33:16;9.10;;;1.55;;
54849;SDS011;47660;51.334;12.396;2023-02-24T05:35:53;7.03;;;1.08;;
54849;SDS011;47660;51.334;12.396;2023-02-24T05:38:18;4.70;;;1.15;;
54849;SDS011;47660;51.334;12.396;2023-02-24T05:40:49;9.68;;;1.98;;
54849;SDS011;47660;51.334;12.396;2023-02-24T05:43:28;6.38;;;0.98;;
54849;SDS011;47660;51.334;12.396;2023-02-24T05:46:00;10.48;;;1.02;;
54849;SDS011;47660;51.334;12.396;2023-02-24T05:48:31;3.15;;;1.10;;
54849;SDS011;47660;51.334;12.396;2023-02-24T05:51:01;8.50;;;1.27;;
54849;SDS011;47660;51.334;12.396;2023-02-24T05:53:34;13.02;;;1.20;;
54849;SDS011;47660;51.334;12.396;2023-02-24T05:56:00;10.35;;;0.93;;
54849;SDS011;47660;51.334;12.396;2023-02-24T05:58:26;12.88;;;1.42;;
54849;SDS011;47660;51.334;12.396;2023-02-24T06:00:53;6.85;;;1.00;;
54849;SDS011;47660;51.334;12.396;2023-02-24T06:03:18;7.20;;;1.65;;
54849;SDS011;47660;51.334;12.396;2023-02-24T06:05:55;8.73;;;1.25;;
54849;SDS011;47660;51.334;12.396;2023-02-24T06:08:23;4.47;;;0.73;;
54849;SDS011;47660;51.334;12.396;2023-02-24T06:10:50;10.93;;;1.15;;
54849;SDS011;47660;51.334;12.396;2023-02-24T06:13:16;9.70;;;1.10;;
54849;SDS011;47660;51.334;12.396;2023-02-24T06:15:41;9.98;;;1.80;;
54849;SDS011;47660;51.334;12.396;2023-02-24T06:18:14;2.25;;;0.95;;
54849;SDS011;47660;51.334;12.396;2023-02-24T06:20:41;5.40;;;1.08;;
54849;SDS011;47660;51.334;12.396;2023-02-24T06:23:15;6.18;;;1.13;;
54849;SDS011;47660;51.334;12.396;2023-02-24T06:25:43;8.05;;;1.48;;
54849;SDS011;47660;51.334;12.396;2023-02-24T06:28:11;5.80;;;1.27;;
54849;SDS011;47660;51.334;12.396;2023-02-24T06:30:36;6.25;;;1.10;;
54849;SDS011;47660;51.334;12.396;2023-02-24T06:33:02;7.80;;;1.00;;
54849;SDS011;47660;51.334;12.396;2023-02-24T06:35:30;3.90;;;1.05;;
54849;SDS011;47660;51.334;12.396;2023-02-24T06:37:58;6.00;;;0.98;;
54849;SDS011;47660;51.334;12.396;2023-02-24T06:40:26;9.75;;;1.38;;
54849;SDS011;47660;51.334;12.396;2023-02-24T06:42:52;9.35;;;1.42;;
54849;SDS011;47660;51.334;12.396;2023-02-24T06:45:18;7.15;;;1.40;;
54849;SDS011;47660;51.334;12.396;2023-02-24T06:47:43;3.80;;;0.95;;
54849;SDS011;47660;51.334;12.396;2023-02-24T06:50:13;2.40;;;1.10;;
54849;SDS011;47660;51.334;12.396;2023-02-24T06:52:39;2.67;;;0.75;;
54849;SDS011;47660;51.334;12.396;2023-02-24T06:55:07;1.80;;;1.30;;
54849;SDS011;47660;51.334;12.396;2023-02-24T06:57:53;7.68;;;1.40;;
54849;SDS011;47660;51.334;12.396;2023-02-24T07:00:25;3.75;;;1.20;;
54849;SDS011;47660;51.334;12.396;2023-02-24T07:03:05;7.47;;;1.55;;
54849;SDS011;47660;51.334;12.396;2023-02-24T07:05:44;4.63;;;1.10;;
54849;SDS011;47660;51.334;12.396;2023-02-24T07:08:22;2.25;;;0.90;;
54849;SDS011;47660;51.334;12.396;2023-02-24T07:10:52;7.18;;;0.80;;
54849;SDS011;47660;51.334;12.396;2023-02-24T07:13:20;1.45;;;1.20;;
54849;SDS011;47660;51.334;12.396;2023-02-24T07:15:50;5.20;;;1.08;;
54849;SDS011;47660;51.334;12.396;2023-02-24T07:18:16;2.00;;;0.65;;
54849;SDS011;47660;51.334;12.396;2023-02-24T07:20:43;6.70;;;0.95;;
54849;SDS011;47660;51.334;12.396;2023-02-24T07:23:10;9.45;;;1.08;;
54849;SDS011;47660;51.334;12.396;2023-02-24T07:25:37;9.50;;;1.27;;
54849;SDS011;47660;51.334;12.396;2023-02-24T07:28:04;5.40;;;1.58;;
54849;SDS011;47660;51.334;12.396;2023-02-24T07:30:32;6.75;;;1.52;;
54849;SDS011;47660;51.334;12.396;2023-02-24T07:33:01;8.10;;;1.77;;
54849;SDS011;47660;51.334;12.396;2023-02-24T07:35:28;12.50;;;1.73;;
54849;SDS011;47660;51.334;12.396;2023-02-24T07:37:57;9.38;;;2.10;;
54849;SDS011;47660;51.334;12.396;2023-02-24T07:40:28;7.68;;;1.92;;
54849;SDS011;47660;51.334;12.396;2023-02-24T07:42:58;15.02;;;3.15;;
54849;SDS011;47660;51.334;12.396;2023-02-24T07:45:25;7.00;;;1.48;;
54849;SDS011;47660;51.334;12.396;2023-02-24T07:47:50;5.05;;;1.30;;
54849;SDS011;47660;51.334;12.396;2023-02-24T07:50:16;1.63;;;0.95;;
54849;SDS011;47660;51.334;12.396;2023-02-24T07:52:45;4.80;;;1.60;;
54849;SDS011;47660;51.334;12.396;2023-02-24T07:55:15;3.20;;;1.20;;
54849;SDS011;47660;51.334;12.396;2023-02-24T07:57:41;2.38;;;1.15;;
54849;SDS011;47660;51.334;12.396;2023-02-24T08:00:11;4.10;;;1.30;;
54849;SDS011;47660;51.334;12.396;2023-02-24T08:02:45;7.53;;;1.98;;
54849;SDS011;47660;51.334;12.396;2023-02-24T08:05:13;3.10;;;1.90;;
54849;SDS011;47660;51.334;12.396;2023-02-24T08:07:42;16.42;;;2.63;;
54849;SDS011;47660;51.334;12.396;2023-02-24T08:10:13;9.75;;;1.25;;
54849;SDS011;47660;51.334;12.396;2023-02-24T08:12:48;2.97;;;1.45;;
54849;SDS011;47660;51.334;12.396;2023-02-24T08:15:21;15.30;;;2.53;;
54849;SDS011;47660;51.334;12.396;2023-02-24T08:17:58;4.63;;;1.60;;
54849;SDS011;47660;51.334;12.396;2023-02-24T08:20:25;14.65;;;2.25;;
54849;SDS011;47660;51.334;12.396;2023-02-24T08:22:54;4.00;;;1.33;;
54849;SDS011;47660;51.334;12.396;2023-02-24T08:25:21;8.98;;;2.55;;
54849;SDS011;47660;51.334;12.396;2023-02-24T08:27:50;1.98;;;0.85;;
54849;SDS011;47660;51.334;12.396;2023-02-24T08:30:23;2.35;;;1.02;;
54849;SDS011;47660;51.334;12.396;2023-02-24T08:32:54;9.85;;;1.58;;
54849;SDS011;47660;51.334;12.396;2023-02-24T08:35:28;3.22;;;1.15;;
54849;SDS011;47660;51.334;12.396;2023-02-24T08:38:10;1.85;;;1.00;;
54849;SDS011;47660;51.334;12.396;2023-02-24T08:40:41;16.80;;;1.85;;
54849;SDS011;47660;51.334;12.396;2023-02-24T08:43:25;2.67;;;0.88;;
54849;SDS011;47660;51.334;12.396;2023-02-24T08:48:35;6.10;;;0.73;;
54849;SDS011;47660;51.334;12.396;2023-02-24T08:51:10;2.40;;;1.05;;
54849;SDS011;47660;51.334;12.396;2023-02-24T08:53:47;7.47;;;1.83;;
54849;SDS011;47660;51.334;12.396;2023-02-24T08:56:17;8.77;;;1.77;;
54849;SDS011;47660;51.334;12.396;2023-02-24T08:58:50;3.53;;;1.00;;
54849;SDS011;47660;51.334;12.396;2023-02-24T09:01:22;4.45;;;1.35;;
54849;SDS011;47660;51.334;12.396;2023-02-24T09:03:51;2.60;;;0.75;;
54849;SDS011;47660;51.334;12.396;2023-02-24T09:06:23;1.75;;;0.85;;
54849;SDS011;47660;51.334;12.396;2023-02-24T09:08:57;5.45;;;1.50;;
54849;SDS011;47660;51.334;12.396;2023-02-24T09:11:44;3.30;;;1.35;;
54849;SDS011;47660;51.334;12.396;2023-02-24T09:16:50;8.57;;;1.27;;
54849;SDS011;47660;51.334;12.396;2023-02-24T09:19:29;1.75;;;0.95;;
54849;SDS011;47660;51.334;12.396;2023-02-24T09:22:04;3.92;;;1.65;;
54849;SDS011;47660;51.334;12.396;2023-02-24T09:24:38;8.07;;;1.65;;
54849;SDS011;47660;51.334;12.396;2023-02-24T09:27:05;3.92;;;1.27;;
54849;SDS011;47660;51.334;12.396;2023-02-24T09:29:33;1.25;;;0.80;;
54849;SDS011;47660;51.334;12.396;2023-02-24T09:32:15;11.52;;;1.55;;
54849;SDS011;47660;51.334;12.396;2023-02-24T09:34:43;4.00;;;1.75;;
54849;SDS011;47660;51.334;12.396;2023-02-24T09:37:12;2.38;;;1.58;;
54849;SDS011;47660;51.334;12.396;2023-02-24T09:39:51;5.07;;;2.08;;
54849;SDS011;47660;51.334;12.396;2023-02-24T09:42:24;2.90;;;1.63;;
54849;SDS011;47660;51.334;12.396;2023-02-24T09:44:54;4.70;;;1.55;;
54849;SDS011;47660;51.334;12.396;2023-02-24T09:47:36;3.47;;;1.60;;
54849;SDS011;47660;51.334;12.396;2023-02-24T09:52:53;0.68;;;0.63;;
54849;SDS011;47660;51.334;12.396;2023-02-24T09:55:22;8.68;;;2.28;;
54849;SDS011;47660;51.334;12.396;2023-02-24T10:03:47;7.72;;;3.42;;
54849;SDS011;47660;51.334;12.396;2023-02-24T10:06:39;3.58;;;1.50;;
54849;SDS011;47660;51.334;12.396;2023-02-24T10:09:19;3.55;;;1.85;;
54849;SDS011;47660;51.334;12.396;2023-02-24T10:11:58;2.70;;;1.30;;
54849;SDS011;47660;51.334;12.396;2023-02-24T10:14:35;1.65;;;1.10;;
54849;SDS011;47660;51.334;12.396;2023-02-24T10:17:26;6.43;;;1.67;;
54849;SDS011;47660;51.334;12.396;2023-02-24T10:22:38;7.43;;;1.85;;
54849;SDS011;47660;51.334;12.396;2023-02-24T10:28:35;2.13;;;1.50;;
54849;SDS011;47660;51.334;12.396;2023-02-24T10:31:22;5.20;;;2.17;;
54849;SDS011;47660;51.334;12.396;2023-02-24T10:33:55;9.57;;;2.17;;
54849;SDS011;47660;51.334;12.396;2023-02-24T10:36:24;3.80;;;1.50;;
54849;SDS011;47660;51.334;12.396;2023-02-24T10:39:00;4.47;;;2.30;;
54849;SDS011;47660;51.334;12.396;2023-02-24T10:41:56;5.15;;;1.40;;
54849;SDS011;47660;51.334;12.396;2023-02-24T10:44:39;3.60;;;1.75;;
54849;SDS011;47660;51.334;12.396;2023-02-24T10:47:16;2.70;;;1.17;;
54849;SDS011;47660;51.334;12.396;2023-02-24T10:49:56;6.05;;;1.98;;
54849;SDS011;47660;51.334;12.396;2023-02-24T10:55:12;3.50;;;1.40;;
54849;SDS011;47660;51.334;12.396;2023-02-24T10:57:55;5.82;;;2.05;;
54849;SDS011;47660;51.334;12.396;2023-02-24T11:00:41;6.30;;;1.85;;
54849;SDS011;47660;51.334;12.396;2023-02-24T11:03:26;3.83;;;1.77;;
54849;SDS011;47660;51.334;12.396;2023-02-24T11:06:17;4.60;;;1.58;;
54849;SDS011;47660;51.334;12.396;2023-02-24T11:08:58;2.95;;;0.95;;
54849;SDS011;47660;51.334;12.396;2023-02-24T11:11:43;4.43;;;2.00;;
54849;SDS011;47660;51.334;12.396;2023-02-24T11:14:28;3.10;;;1.17;;
54849;SDS011;47660;51.334;12.396;2023-02-24T11:17:18;2.17;;;1.30;;
54849;SDS011;47660;51.334;12.396;2023-02-24T11:22:40;2.15;;;0.82;;
54849;SDS011;47660;51.334;12.396;2023-02-24T11:28:04;2.58;;;1.08;;
54849;SDS011;47660;51.334;12.396;2023-02-24T11:36:09;2.05;;;0.95;;
54849;SDS011;47660;51.334;12.396;2023-02-24T11:38:45;1.73;;;1.23;;
54849;SDS011;47660;51.334;12.396;2023-02-24T11:41:36;8.30;;;1.65;;
54849;SDS011;47660;51.334;12.396;2023-02-24T11:44:14;3.33;;;2.50;;
54849;SDS011;47660;51.334;12.396;2023-02-24T11:46:57;4.63;;;1.17;;
54849;SDS011;47660;51.334;12.396;2023-02-24T11:49:29;2.33;;;1.65;;
54849;SDS011;47660;51.334;12.396;2023-02-24T11:52:01;1.80;;;1.13;;
54849;SDS011;47660;51.334;12.396;2023-02-24T11:54:43;5.97;;;1.40;;
54849;SDS011;47660;51.334;12.396;2023-02-24T11:57:16;4.57;;;1.65;;
54849;SDS011;47660;51.334;12.396;2023-02-24T12:00:50;3.75;;;1.20;;
54849;SDS011;47660;51.334;12.396;2023-02-24T12:05:55;2.05;;;0.70;;
54849;SDS011;47660;51.334;12.396;2023-02-24T12:08:31;5.45;;;1.50;;
54849;SDS011;47660;51.334;12.396;2023-02-24T12:11:09;2.55;;;1.00;;
54849;SDS011;47660;51.334;12.396;2023-02-24T12:14:07;3.33;;;1.67;;
54849;SDS011;47660;51.334;12.396;2023-02-24T12:16:46;4.30;;;1.38;;
54849;SDS011;47660;51.334;12.396;2023-02-24T12:19:32;4.25;;;1.90;;
54849;SDS011;47660;51.334;12.396;2023-02-24T12:22:08;3.97;;;1.15;;
54849;SDS011;47660;51.334;12.396;2023-02-24T12:24:38;4.53;;;1.75;;
54849;SDS011;47660;51.334;12.396;2023-02-24T12:33:30;2.97;;;1.40;;
54849;SDS011;47660;51.334;12.396;2023-02-24T12:36:19;4.00;;;1.63;;
54849;SDS011;47660;51.334;12.396;2023-02-24T12:39:12;2.88;;;1.30;;
54849;SDS011;47660;51.334;12.396;2023-02-24T12:47:08;4.38;;;1.70;;
54849;SDS011;47660;51.334;12.396;2023-02-24T12:57:47;1.73;;;0.65;;
54849;SDS011;47660;51.334;12.396;2023-02-24T13:00:17;2.33;;;1.33;;
54849;SDS011;47660;51.334;12.396;2023-02-24T13:05:49;2.63;;;1.13;;
54849;SDS011;47660;51.334;12.396;2023-02-24T13:11:48;4.80;;;1.55;;
54849;SDS011;47660;51.334;12.396;2023-02-24T13:14:26;5.30;;;1.60;;
54849;SDS011;47660;51.334;12.396;2023-02-24T13:19:33;7.45;;;1.45;;
54849;SDS011;47660;51.334;12.396;2023-02-24T13:22:07;2.92;;;1.42;;
54849;SDS011;47660;51.334;12.396;2023-02-24T13:24:33;3.92;;;1.40;;
54849;SDS011;47660;51.334;12.396;2023-02-24T13:27:04;4.78;;;1.00;;
54849;SDS011;47660;51.334;12.396;2023-02-24T13:29:45;3.42;;;1.65;;
54849;SDS011;47660;51.334;12.396;2023-02-24T13:32:31;1.73;;;0.77;;
54849;SDS011;47660;51.334;12.396;2023-02-24T13:35:00;5.20;;;1.70;;
54849;SDS011;47660;51.334;12.396;2023-02-24T13:37:33;2.50;;;0.93;;
54849;SDS011;47660;51.334;12.396;2023-02-24T13:39:59;1.67;;;1.08;;
54849;SDS011;47660;51.334;12.396;2023-02-24T13:42:36;2.35;;;0.85;;
54849;SDS011;47660;51.334;12.396;2023-02-24T13:45:03;5.55;;;1.58;;
54849;SDS011;47660;51.334;12.396;2023-02-24T13:53:43;1.63;;;0.93;;
54849;SDS011;47660;51.334;12.396;2023-02-24T13:58:54;5.68;;;1.88;;
54849;SDS011;47660;51.334;12.396;2023-02-24T14:01:50;2.20;;;1.05;;
54849;SDS011;47660;51.334;12.396;2023-02-24T14:04:27;2.22;;;1.83;;
54849;SDS011;47660;51.334;12.396;2023-02-24T14:06:59;1.52;;;1.08;;
54849;SDS011;47660;51.334;12.396;2023-02-24T14:09:32;5.57;;;2.15;;
54849;SDS011;47660;51.334;12.396;2023-02-24T14:12:14;2.72;;;1.15;;
54849;SDS011;47660;51.334;12.396;2023-02-24T14:14:45;0.50;;;0.50;;
54849;SDS011;47660;51.334;12.396;2023-02-24T14:17:20;2.50;;;1.15;;
54849;SDS011;47660;51.334;12.396;2023-02-24T14:20:06;2.53;;;1.48;;
54849;SDS011;47660;51.334;12.396;2023-02-24T14:22:54;1.20;;;0.93;;
54849;SDS011;47660;51.334;12.396;2023-02-24T14:25:25;2.42;;;1.75;;
54849;SDS011;47660;51.334;12.396;2023-02-24T14:27:54;4.93;;;1.40;;
54849;SDS011;47660;51.334;12.396;2023-02-24T14:32:54;4.25;;;1.30;;
54849;SDS011;47660;51.334;12.396;2023-02-24T14:35:22;4.80;;;1.80;;
54849;SDS011;47660;51.334;12.396;2023-02-24T14:38:27;3.08;;;1.42;;
54849;SDS011;47660;51.334;12.396;2023-02-24T14:41:21;2.88;;;0.95;;
54849;SDS011;47660;51.334;12.396;2023-02-24T14:44:19;15.65;;;3.15;;
54849;SDS011;47660;51.334;12.396;2023-02-24T14:46:50;6.78;;;1.42;;
54849;SDS011;47660;51.334;12.396;2023-02-24T14:49:22;4.28;;;1.73;;
54849;SDS011;47660;51.334;12.396;2023-02-24T14:51:51;6.32;;;2.45;;
54849;SDS011;47660;51.334;12.396;2023-02-24T14:54:23;1.33;;;1.13;;
54849;SDS011;47660;51.334;12.396;2023-02-24T14:56:58;3.10;;;1.13;;
54849;SDS011;47660;51.334;12.396;2023-02-24T15:01:58;7.93;;;2.13;;
54849;SDS011;47660;51.334;12.396;2023-02-24T15:04:32;2.83;;;1.27;;
54849;SDS011;47660;51.334;12.396;2023-02-24T15:07:01;5.75;;;1.88;;
54849;SDS011;47660;51.334;12.396;2023-02-24T15:09:33;4.65;;;1.38;;
54849;SDS011;47660;51.334;12.396;2023-02-24T15:12:50;3.37;;;2.07;;
54849;SDS011;47660;51.334;12.396;2023-02-24T15:15:23;2.72;;;1.42;;
54849;SDS011;47660;51.334;12.396;2023-02-24T15:17:54;5.78;;;2.08;;
54849;SDS011;47660;51.334;12.396;2023-02-24T15:20:28;2.50;;;1.38;;
54849;SDS011;47660;51.334;12.396;2023-02-24T15:22:59;3.28;;;2.28;;
54849;SDS011;47660;51.334;12.396;2023-02-24T15:25:28;2.92;;;2.17;;
54849;SDS011;47660;51.334;12.396;2023-02-24T15:28:23;4.65;;;1.73;;
54849;SDS011;47660;51.334;12.396;2023-02-24T15:31:33;7.10;;;3.97;;
54849;SDS011;47660;51.334;12.396;2023-02-24T15:33:44;7.70;;;2.72;;
54849;SDS011;47660;51.334;12.396;2023-02-24T15:36:18;4.78;;;2.05;;
54849;SDS011;47660;51.334;12.396;2023-02-24T15:38:59;2.20;;;1.65;;
54849;SDS011;47660;51.334;12.396;2023-02-24T15:41:43;1.33;;;1.20;;
54849;SDS011;47660;51.334;12.396;2023-02-24T15:46:53;3.88;;;1.90;;
54849;SDS011;47660;51.334;12.396;2023-02-24T15:49:19;2.25;;;1.23;;
54849;SDS011;47660;51.334;12.396;2023-02-24T15:51:46;1.83;;;1.30;;
54849;SDS011;47660;51.334;12.396;2023-02-24T15:54:26;6.22;;;1.63;;
54849;SDS011;47660;51.334;12.396;2023-02-24T15:56:55;3.10;;;1.63;;
54849;SDS011;47660;51.334;12.396;2023-02-24T15:59:25;3.05;;;1.65;;
54849;SDS011;47660;51.334;12.396;2023-02-24T16:01:51;2.55;;;1.30;;
54849;SDS011;47660;51.334;12.396;2023-02-24T16:04:17;1.40;;;1.08;;
54849;SDS011;47660;51.334;12.396;2023-02-24T16:06:43;1.98;;;1.35;;
54849;SDS011;47660;51.334;12.396;2023-02-24T16:09:21;0.60;;;0.60;;
54849;SDS011;47660;51.334;12.396;2023-02-24T16:11:50;1.27;;;1.08;;
54849;SDS011;47660;51.334;12.396;2023-02-24T16:14:16;1.45;;;0.98;;
54849;SDS011;47660;51.334;12.396;2023-02-24T16:16:42;1.13;;;1.02;;
54849;SDS011;47660;51.334;12.396;2023-02-24T16:19:09;2.15;;;1.70;;
54849;SDS011;47660;51.334;12.396;2023-02-24T16:21:40;0.63;;;0.55;;
54849;SDS011;47660;51.334;12.396;2023-02-24T16:24:06;2.25;;;1.60;;
54849;SDS011;47660;51.334;12.396;2023-02-24T16:26:36;3.38;;;1.10;;
54849;SDS011;47660;51.334;12.396;2023-02-24T16:29:03;1.15;;;1.10;;
54849;SDS011;47660;51.334;12.396;2023-02-24T16:31:36;3.63;;;1.98;;
54849;SDS011;47660;51.334;12.396;2023-02-24T16:34:03;4.05;;;1.17;;
54849;SDS011;47660;51.334;12.396;2023-02-24T16:36:28;1.00;;;0.98;;
54849;SDS011;47660;51.334;12.396;2023-02-24T16:38:55;0.95;;;0.57;;
54849;SDS011;47660;51.334;12.396;2023-02-24T16:41:20;2.08;;;1.45;;
54849;SDS011;47660;51.334;12.396;2023-02-24T16:43:46;1.08;;;0.70;;
54849;SDS011;47660;51.334;12.396;2023-02-24T16:46:12;0.93;;;0.73;;
54849;SDS011;47660;51.334;12.396;2023-02-24T16:48:40;0.73;;;0.60;;
54849;SDS011;47660;51.334;12.396;2023-02-24T16:51:09;2.80;;;2.20;;
54849;SDS011;47660;51.334;12.396;2023-02-24T16:53:38;3.22;;;2.03;;
54849;SDS011;47660;51.334;12.396;2023-02-24T16:56:06;1.88;;;1.10;;
54849;SDS011;47660;51.334;12.396;2023-02-24T16:58:32;2.80;;;1.20;;
54849;SDS011;47660;51.334;12.396;2023-02-24T17:00:58;0.90;;;0.80;;
54849;SDS011;47660;51.334;12.396;2023-02-24T17:03:28;2.75;;;2.08;;
54849;SDS011;47660;51.334;12.396;2023-02-24T17:05:57;1.63;;;1.30;;
54849;SDS011;47660;51.334;12.396;2023-02-24T17:08:23;0.95;;;0.88;;
54849;SDS011;47660;51.334;12.396;2023-02-24T17:10:51;1.48;;;1.38;;
54849;SDS011;47660;51.334;12.396;2023-02-24T17:13:18;3.33;;;2.65;;
54849;SDS011;47660;51.334;12.396;2023-02-24T17:15:45;2.28;;;1.50;;
54849;SDS011;47660;51.334;12.396;2023-02-24T17:18:13;2.20;;;1.63;;
54849;SDS011;47660;51.334;12.396;2023-02-24T17:20:42;2.42;;;1.95;;